Time;durP1;ratioP1;P1;durP2;ratioP2;P2;SDS_P1;SDS_P2;PMS_P1;PMS_P2;Temp;Humidity;BMP_temperature;BMP_pressure;BME280_temperature;BME280_humidity;BME280_pressure;Samples;Min_cycle;Max_cycle;Signal;HPM_P1;HPM_P2
2023/07/09 00:00:49;;;;;;;9.80;6.20;;;;;;;23.30;49.30;96609.25;5016575;28;20422;-74
2023/07/09 00:03:15;;;;;;;8.27;5.70;;;;;;;23.33;49.45;96614.31;5032310;28;20901;-73
2023/07/09 00:05:41;;;;;;;7.20;5.23;;;;;;;23.28;49.45;96619.25;5030979;28;20410;-76
2023/07/09 00:08:23;;;;;;;9.70;6.20;;;;;;;23.04;49.90;96623.19;5039672;28;20175;-74
2023/07/09 00:10:49;;;;;;;11.60;5.70;;;;;;;22.87;50.50;96625.66;5054823;28;20187;-74
2023/07/09 00:13:14;;;;;;;9.83;8.10;;;;;;;22.79;50.57;96627.19;5053113;28;20410;-73
2023/07/09 00:15:39;;;;;;;15.00;6.20;;;;;;;22.68;51.29;96631.78;5047948;28;20725;-72
2023/07/09 00:18:06;;;;;;;8.50;5.20;;;;;;;22.83;50.75;96635.78;5046662;28;20164;-75
2023/07/09 00:20:31;;;;;;;9.80;5.70;;;;;;;22.78;50.94;96635.38;5045989;28;20218;-74
2023/07/09 00:22:57;;;;;;;10.80;6.73;;;;;;;22.76;50.92;96634.66;5038274;28;20418;-77
2023/07/09 00:25:24;;;;;;;10.67;6.13;;;;;;;22.68;51.28;96634.47;5025616;28;20172;-74
2023/07/09 00:27:49;;;;;;;12.40;6.23;;;;;;;22.70;51.26;96632.50;5007796;28;20262;-76
2023/07/09 00:30:24;;;;;;;6.97;5.47;;;;;;;22.66;51.56;96633.78;5009380;28;20477;-76
2023/07/09 00:32:51;;;;;;;8.77;5.90;;;;;;;22.66;51.63;96637.31;5025714;28;20190;-76
2023/07/09 00:35:18;;;;;;;14.13;6.33;;;;;;;22.79;51.16;96637.03;5028858;28;20530;-74
2023/07/09 00:37:44;;;;;;;9.77;5.90;;;;;;;22.75;51.27;96632.97;5024441;28;20423;-75
2023/07/09 00:40:21;;;;;;;19.10;6.97;;;;;;;22.66;51.65;96644.50;5006738;28;20430;-75
2023/07/09 00:42:53;;;;;;;19.93;6.20;;;;;;;22.62;51.29;96636.72;5021343;28;20414;-76
2023/07/09 00:45:27;;;;;;;8.67;6.20;;;;;;;22.52;51.92;96633.19;5026602;28;21111;-74
2023/07/09 00:48:02;;;;;;;8.50;5.40;;;;;;;22.49;51.96;96641.47;5035948;28;20503;-75
2023/07/09 00:50:41;;;;;;;13.50;6.37;;;;;;;22.58;51.70;96638.00;5045655;28;20961;-74
2023/07/09 00:53:22;;;;;;;13.73;7.27;;;;;;;22.68;51.47;96640.69;5045709;28;20417;-73
2023/07/09 00:55:59;;;;;;;9.50;6.10;;;;;;;22.87;50.86;96634.53;5005801;28;20419;-77
2023/07/09 00:58:26;;;;;;;14.10;6.90;;;;;;;22.87;50.79;96637.22;5005996;28;20415;-73
2023/07/09 01:00:56;;;;;;;11.53;6.40;;;;;;;22.74;51.17;96639.28;5005666;28;20438;-73
2023/07/09 01:03:35;;;;;;;11.43;6.50;;;;;;;22.70;51.49;96646.75;5005901;28;20450;-74
2023/07/09 01:06:00;;;;;;;8.80;6.30;;;;;;;22.45;52.12;96641.88;5006058;28;20427;-77
2023/07/09 01:08:30;;;;;;;13.83;6.33;;;;;;;22.32;52.38;96645.63;5006205;28;20458;-74
2023/07/09 01:10:56;;;;;;;20.07;7.33;;;;;;;22.33;52.41;96647.31;5005574;28;20200;-75
2023/07/09 01:13:21;;;;;;;11.67;5.80;;;;;;;22.25;52.53;96654.31;5006064;28;20415;-75
2023/07/09 01:15:47;;;;;;;8.33;6.50;;;;;;;22.24;52.54;96649.94;5006323;28;20179;-75
2023/07/09 01:18:14;;;;;;;17.30;7.00;;;;;;;22.26;52.61;96651.50;5006032;28;20655;-77
2023/07/09 01:20:40;;;;;;;9.80;5.43;;;;;;;22.54;51.71;96655.28;5005624;28;20215;-75
2023/07/09 01:23:07;;;;;;;10.47;6.07;;;;;;;22.28;52.86;96649.56;5005817;28;20503;-75
2023/07/09 01:25:34;;;;;;;10.73;6.03;;;;;;;22.23;52.89;96650.91;5005588;28;20418;-76
2023/07/09 01:28:00;;;;;;;9.17;5.70;;;;;;;22.15;53.31;96652.41;5005702;28;20461;-75
2023/07/09 01:30:28;;;;;;;8.60;6.27;;;;;;;22.10;53.48;96651.09;5011326;28;20422;-75
2023/07/09 01:32:58;;;;;;;8.77;5.83;;;;;;;21.98;53.85;96653.00;5025610;28;20281;-75
2023/07/09 01:35:26;;;;;;;11.60;5.80;;;;;;;22.06;53.75;96644.31;5026111;28;20438;-74
2023/07/09 01:37:51;;;;;;;8.57;5.53;;;;;;;22.12;52.74;96647.31;5024466;28;20476;-75
2023/07/09 01:40:19;;;;;;;12.37;6.60;;;;;;;21.92;53.80;96646.38;5025128;28;21159;-77
2023/07/09 01:42:45;;;;;;;9.30;5.43;;;;;;;21.94;53.89;96640.88;5034532;28;20223;-74
2023/07/09 01:45:11;;;;;;;14.77;6.67;;;;;;;21.87;53.94;96645.91;5034836;28;20537;-74
2023/07/09 01:47:38;;;;;;;14.30;6.47;;;;;;;21.97;53.23;96646.00;5039016;28;20198;-75
2023/07/09 01:50:05;;;;;;;12.00;6.60;;;;;;;21.91;53.63;96646.50;5046367;28;20562;-77
2023/07/09 01:52:33;;;;;;;15.77;6.23;;;;;;;21.92;53.40;96649.06;5026226;28;20445;-75
2023/07/09 01:54:58;;;;;;;11.90;5.90;;;;;;;21.94;53.68;96648.91;5026454;28;20433;-75
2023/07/09 01:57:34;;;;;;;13.07;6.30;;;;;;;21.94;53.55;96646.22;5026119;28;20414;-75
2023/07/09 02:00:07;;;;;;;39.60;8.57;;;;;;;21.74;54.03;96643.44;5025593;28;20171;-77
2023/07/09 02:02:35;;;;;;;11.73;7.07;;;;;;;21.76;53.88;96648.66;5022846;28;20441;-74
2023/07/09 02:05:01;;;;;;;11.10;5.70;;;;;;;21.76;53.66;96654.84;5006156;28;20426;-74
2023/07/09 02:07:26;;;;;;;15.60;6.57;;;;;;;21.83;53.61;96656.97;5007079;28;20419;-74
2023/07/09 02:09:53;;;;;;;8.20;6.83;;;;;;;21.78;53.71;96663.59;5009984;28;20244;-76
2023/07/09 02:12:19;;;;;;;11.40;6.73;;;;;;;21.77;53.78;96667.22;5009730;28;20612;-75
2023/07/09 02:14:45;;;;;;;13.90;6.53;;;;;;;21.63;53.96;96664.88;5009751;28;20509;-75
2023/07/09 02:17:12;;;;;;;6.03;5.10;;;;;;;21.78;53.62;96666.25;5009297;28;20184;-75
2023/07/09 02:19:38;;;;;;;10.30;4.97;;;;;;;21.73;53.99;96668.47;4991630;28;20422;-75
2023/07/09 02:22:04;;;;;;;7.53;5.67;;;;;;;21.55;54.52;96662.84;5009859;28;20534;-74
2023/07/09 02:24:30;;;;;;;9.60;5.23;;;;;;;21.01;56.54;96670.91;5009547;28;20257;-74
2023/07/09 02:26:57;;;;;;;16.00;5.97;;;;;;;21.22;56.10;96669.16;4991798;28;20430;-74
2023/07/09 02:29:23;;;;;;;9.50;6.33;;;;;;;21.45;55.66;96674.41;5009241;28;20204;-75
2023/07/09 02:31:51;;;;;;;8.00;6.20;;;;;;;21.41;55.96;96684.53;5009209;28;20501;-75
2023/07/09 02:34:17;;;;;;;14.73;7.77;;;;;;;21.36;57.47;96681.34;5009030;28;20203;-76
2023/07/09 02:36:43;;;;;;;7.67;6.93;;;;;;;21.46;57.05;96674.31;5008994;28;20505;-76
2023/07/09 02:39:10;;;;;;;7.73;6.60;;;;;;;21.50;56.93;96672.22;5012093;28;20477;-76
2023/07/09 02:41:36;;;;;;;9.27;6.43;;;;;;;21.55;56.63;96670.88;5028522;28;20207;-75
2023/07/09 02:44:01;;;;;;;12.10;6.60;;;;;;;21.61;56.36;96664.16;5028360;28;20426;-76
2023/07/09 02:46:26;;;;;;;18.17;8.37;;;;;;;21.62;56.57;96660.53;5027627;28;20176;-76
2023/07/09 02:48:52;;;;;;;11.73;7.07;;;;;;;21.60;56.76;96662.47;5031460;28;20199;-74
2023/07/09 02:51:17;;;;;;;12.43;6.87;;;;;;;21.61;56.77;96668.66;5027887;28;20207;-76
2023/07/09 02:53:42;;;;;;;11.90;7.00;;;;;;;21.46;57.21;96666.28;5028631;28;20258;-77
2023/07/09 02:56:08;;;;;;;11.47;7.23;;;;;;;21.52;57.27;96671.13;5028472;28;20175;-75
2023/07/09 02:58:33;;;;;;;15.07;6.77;;;;;;;21.42;57.73;96672.00;5011002;28;20596;-75
2023/07/09 03:00:59;;;;;;;9.73;7.13;;;;;;;21.34;57.82;96676.13;5008040;28;20196;-75
2023/07/09 03:03:24;;;;;;;26.53;8.70;;;;;;;21.36;57.75;96674.19;5008120;28;20314;-76
2023/07/09 03:05:49;;;;;;;45.27;11.60;;;;;;;21.41;57.88;96683.69;5008158;28;20184;-75
2023/07/09 03:08:15;;;;;;;25.47;8.83;;;;;;;21.40;57.88;96682.81;5008111;28;20545;-75
2023/07/09 03:10:41;;;;;;;14.93;7.27;;;;;;;21.43;57.80;96681.72;5023932;28;20610;-75
2023/07/09 03:13:06;;;;;;;21.73;8.20;;;;;;;21.29;58.45;96683.69;5028015;28;20180;-73
2023/07/09 03:15:32;;;;;;;14.90;7.67;;;;;;;21.09;58.81;96685.31;5027693;28;20491;-74
2023/07/09 03:17:58;;;;;;;22.67;8.33;;;;;;;21.28;57.97;96682.00;5027468;28;20176;-76
2023/07/09 03:20:23;;;;;;;19.77;8.27;;;;;;;21.19;57.96;96690.75;5027255;28;20167;-74
2023/07/09 03:22:49;;;;;;;10.83;7.23;;;;;;;21.10;58.16;96688.84;5027833;28;20510;-75
2023/07/09 03:25:14;;;;;;;19.97;7.80;;;;;;;21.12;57.82;96698.41;5027680;28;20221;-74
2023/07/09 03:27:40;;;;;;;25.27;7.67;;;;;;;21.01;58.04;96694.94;5027757;28;20259;-76
2023/07/09 03:30:06;;;;;;;19.13;7.87;;;;;;;21.01;57.47;96694.94;5027177;28;20632;-74
2023/07/09 03:32:31;;;;;;;26.70;8.37;;;;;;;20.99;57.88;96694.19;5027437;28;20223;-73
2023/07/09 03:34:56;;;;;;;27.27;8.20;;;;;;;21.04;57.41;96697.34;5027567;28;21063;-76
2023/07/09 03:37:22;;;;;;;13.87;6.00;;;;;;;21.06;57.07;96706.91;5027318;28;20183;-75
2023/07/09 03:39:47;;;;;;;14.13;7.67;;;;;;;21.13;56.79;96702.75;5027028;28;20198;-76
2023/07/09 03:42:13;;;;;;;11.00;5.13;;;;;;;21.10;56.81;96702.19;5027108;28;20207;-77
2023/07/09 03:44:38;;;;;;;9.70;6.07;;;;;;;21.21;56.27;96710.13;5027257;28;20271;-77
2023/07/09 03:47:04;;;;;;;33.60;7.47;;;;;;;21.32;55.85;96704.78;5017907;28;20179;-75
2023/07/09 03:49:29;;;;;;;38.83;7.97;;;;;;;21.18;56.18;96705.06;5046438;28;20214;-74
2023/07/09 03:51:54;;;;;;;24.90;8.63;;;;;;;21.10;56.57;96710.19;5047158;28;20201;-74
2023/07/09 03:54:20;;;;;;;11.60;6.57;;;;;;;21.06;56.74;96701.56;5046958;28;20173;-73
2023/07/09 03:56:45;;;;;;;24.20;7.60;;;;;;;21.10;56.72;96696.84;5047277;28;20523;-75
2023/07/09 03:59:10;;;;;;;35.93;11.10;;;;;;;21.23;56.24;96696.69;5046554;28;20217;-77
2023/07/09 04:01:36;;;;;;;16.83;5.83;;;;;;;21.55;55.31;96715.41;5046955;28;20187;-74
2023/07/09 04:04:02;;;;;;;22.80;6.53;;;;;;;21.66;54.95;96712.72;5046999;28;20175;-74
2023/07/09 04:06:28;;;;;;;30.63;7.57;;;;;;;21.71;54.61;96713.16;5046855;28;20916;-77
2023/07/09 04:08:53;;;;;;;19.23;7.30;;;;;;;21.64;54.65;96712.00;5046242;28;20229;-74
2023/07/09 04:11:19;;;;;;;12.97;6.83;;;;;;;21.72;54.51;96709.50;5046544;28;20207;-74
2023/07/09 04:13:44;;;;;;;27.70;7.90;;;;;;;21.95;53.89;96710.25;5046663;28;20266;-76
2023/07/09 04:16:10;;;;;;;24.57;8.07;;;;;;;22.00;53.50;96709.84;5046519;28;20261;-75
2023/07/09 04:18:36;;;;;;;29.20;8.30;;;;;;;22.25;52.53;96707.78;5046255;28;20177;-75
2023/07/09 04:21:02;;;;;;;38.80;9.60;;;;;;;22.22;52.79;96710.72;5045632;28;20547;-76
2023/07/09 04:23:27;;;;;;;63.33;11.80;;;;;;;22.53;51.93;96709.75;5046287;28;20274;-75
2023/07/09 04:25:52;;;;;;;15.77;5.93;;;;;;;22.44;51.96;96717.72;5046332;28;20179;-75
2023/07/09 04:28:18;;;;;;;9.27;5.67;;;;;;;22.50;52.16;96712.69;5046268;28;20214;-75
2023/07/09 04:30:51;;;;;;;10.07;5.90;;;;;;;22.48;51.97;96706.63;5028821;28;20253;-75
2023/07/09 04:33:18;;;;;;;15.63;6.20;;;;;;;22.75;51.38;96705.22;5025122;28;20540;-74
2023/07/09 04:35:48;;;;;;;35.00;9.93;;;;;;;22.80;51.11;96703.81;5025848;28;20429;-76
2023/07/09 04:38:14;;;;;;;23.67;7.60;;;;;;;22.87;51.32;96709.47;5026034;28;20410;-74
2023/07/09 04:40:40;;;;;;;26.10;8.23;;;;;;;22.81;51.78;96704.66;5023924;28;20520;-75
2023/07/09 04:43:05;;;;;;;24.93;7.70;;;;;;;22.85;51.54;96714.09;5025679;28;20418;-74
2023/07/09 04:45:30;;;;;;;18.27;6.83;;;;;;;22.90;51.25;96711.03;5004913;28;20195;-74
2023/07/09 04:47:56;;;;;;;21.53;7.87;;;;;;;22.71;51.93;96714.47;5022216;28;20274;-75
2023/07/09 04:50:21;;;;;;;42.43;11.37;;;;;;;22.72;52.24;96716.16;5024960;28;20322;-74
2023/07/09 04:52:47;;;;;;;11.70;6.10;;;;;;;22.76;51.87;96705.06;5025413;28;20975;-75
2023/07/09 04:55:12;;;;;;;19.10;7.63;;;;;;;23.00;51.44;96711.91;5025500;28;20186;-77
2023/07/09 04:57:37;;;;;;;31.77;8.53;;;;;;;22.85;52.19;96699.88;5025871;28;20175;-74
2023/07/09 05:00:07;;;;;;;40.40;9.47;;;;;;;22.98;51.84;96716.53;5024883;28;20305;-75
2023/07/09 05:02:33;;;;;;;33.57;9.10;;;;;;;23.19;51.32;96711.97;5025639;28;20231;-77
2023/07/09 05:04:59;;;;;;;22.53;7.93;;;;;;;23.09;51.65;96710.25;5025898;28;20556;-76
2023/07/09 05:07:25;;;;;;;72.80;14.00;;;;;;;23.23;51.45;96718.75;5025535;28;20426;-76
2023/07/09 05:09:50;;;;;;;73.70;13.73;;;;;;;23.38;51.00;96719.19;5025270;28;20449;-74
2023/07/09 05:12:15;;;;;;;32.70;10.20;;;;;;;23.58;50.76;96721.91;5025546;28;20203;-76
2023/07/09 05:14:41;;;;;;;11.67;9.07;;;;;;;23.46;50.90;96718.50;5026125;28;20505;-76
2023/07/09 05:17:07;;;;;;;24.60;8.50;;;;;;;23.62;50.56;96726.84;5025172;28;20186;-75
2023/07/09 05:19:33;;;;;;;35.53;10.47;;;;;;;23.97;49.71;96719.22;5025388;28;20200;-75
2023/07/09 05:21:58;;;;;;;20.67;9.00;;;;;;;23.82;50.08;96726.88;5024888;28;21133;-75
2023/07/09 05:24:24;;;;;;;19.90;7.87;;;;;;;23.85;49.81;96726.56;5022028;28;20174;-75
2023/07/09 05:26:49;;;;;;;35.50;10.10;;;;;;;23.81;50.10;96726.03;4987342;28;20180;-76
2023/07/09 05:29:15;;;;;;;15.47;8.13;;;;;;;23.75;50.09;96721.22;5023541;28;20199;-74
2023/07/09 05:31:41;;;;;;;38.57;10.00;;;;;;;24.00;49.45;96713.56;5023260;28;20211;-74
2023/07/09 05:34:07;;;;;;;37.10;11.93;;;;;;;24.27;48.87;96718.19;5024594;28;20190;-75
2023/07/09 05:36:33;;;;;;;42.97;10.57;;;;;;;24.19;48.97;96721.59;5025062;28;20919;-75
2023/07/09 05:38:58;;;;;;;37.10;9.40;;;;;;;24.46;48.50;96722.66;5023758;28;20277;-75
2023/07/09 05:41:24;;;;;;;44.13;10.73;;;;;;;24.65;48.05;96713.72;5006869;28;20724;-75
2023/07/09 05:43:51;;;;;;;38.23;10.40;;;;;;;24.76;47.71;96715.38;5029158;28;20183;-76
2023/07/09 05:46:17;;;;;;;32.40;9.50;;;;;;;24.87;47.35;96724.06;5029612;28;20739;-74
2023/07/09 05:48:43;;;;;;;35.90;9.30;;;;;;;24.88;47.71;96717.72;5029279;28;20891;-77
2023/07/09 05:51:08;;;;;;;85.47;14.77;;;;;;;25.08;46.97;96718.47;5005803;28;20458;-75
2023/07/09 05:53:34;;;;;;;42.33;9.17;;;;;;;24.97;47.41;96718.69;5022728;28;20183;-73
2023/07/09 05:55:59;;;;;;;45.73;10.20;;;;;;;24.90;47.30;96722.97;5027503;28;20249;-73
2023/07/09 05:58:25;;;;;;;16.60;8.40;;;;;;;25.00;47.21;96718.38;5025785;28;20176;-72
2023/07/09 06:00:56;;;;;;;18.20;8.30;;;;;;;25.24;47.06;96727.75;5027588;28;20261;-76
2023/07/09 06:03:23;;;;;;;18.40;8.13;;;;;;;25.45;45.94;96720.25;5028313;28;20171;-74
2023/07/09 06:05:51;;;;;;;14.30;6.90;;;;;;;25.66;46.15;96719.13;5028180;28;20449;-73
2023/07/09 06:08:18;;;;;;;11.83;7.33;;;;;;;25.64;46.10;96715.75;5023839;28;20422;-77
2023/07/09 06:11:00;;;;;;;36.87;10.10;;;;;;;25.52;46.46;96721.34;5026528;28;20461;-75
2023/07/09 06:13:27;;;;;;;34.77;10.80;;;;;;;25.75;45.71;96727.09;5029183;28;20903;-74
2023/07/09 06:15:54;;;;;;;48.97;10.40;;;;;;;25.80;45.88;96729.34;5025966;28;20435;-75
2023/07/09 06:18:21;;;;;;;23.80;8.80;;;;;;;25.68;46.33;96727.88;5030992;28;20504;-74
2023/07/09 06:20:51;;;;;;;29.53;7.90;;;;;;;25.86;45.53;96726.03;5034300;28;20460;-72
2023/07/09 06:23:16;;;;;;;16.63;7.80;;;;;;;26.21;44.96;96718.09;5020074;28;20465;-72
2023/07/09 06:25:43;;;;;;;9.30;6.73;;;;;;;26.15;44.89;96716.84;5019679;28;20461;-73
2023/07/09 06:28:09;;;;;;;13.60;6.37;;;;;;;26.15;44.70;96717.72;5024782;28;20180;-74
2023/07/09 06:30:36;;;;;;;12.50;8.00;;;;;;;26.23;44.85;96719.63;5022805;28;20499;-73
2023/07/09 06:33:01;;;;;;;41.00;10.40;;;;;;;26.43;44.65;96722.09;5025366;28;20305;-77
2023/07/09 06:35:27;;;;;;;20.90;8.00;;;;;;;26.59;44.02;96717.69;5025379;28;20425;-76
2023/07/09 06:37:52;;;;;;;24.97;7.83;;;;;;;26.74;43.44;96719.78;5025304;28;20716;-77
2023/07/09 06:40:18;;;;;;;30.07;7.87;;;;;;;26.76;43.44;96715.91;5025067;28;20182;-75
2023/07/09 06:42:43;;;;;;;16.30;7.00;;;;;;;26.88;42.99;96710.25;5025075;28;20171;-72
2023/07/09 06:45:09;;;;;;;19.60;7.13;;;;;;;26.95;42.91;96716.69;5026265;28;20412;-73
2023/07/09 06:47:34;;;;;;;30.53;7.63;;;;;;;27.11;42.42;96714.06;5028245;28;20261;-72
2023/07/09 06:50:00;;;;;;;22.37;7.00;;;;;;;27.15;42.09;96719.97;5036144;28;20540;-72
2023/07/09 06:52:25;;;;;;;14.97;6.80;;;;;;;27.30;41.97;96722.91;5022844;28;20210;-72
2023/07/09 06:54:51;;;;;;;19.30;7.30;;;;;;;27.50;41.58;96718.06;5017553;28;20242;-72
2023/07/09 06:57:16;;;;;;;20.20;9.13;;;;;;;27.62;41.22;96720.31;5025426;28;20179;-73
2023/07/09 06:59:41;;;;;;;14.07;6.40;;;;;;;27.78;41.13;96722.19;5023093;28;20260;-73
2023/07/09 07:02:08;;;;;;;14.63;6.43;;;;;;;27.81;40.72;96723.69;5024865;28;20191;-73
2023/07/09 07:04:33;;;;;;;16.43;6.33;;;;;;;27.81;41.30;96718.31;5024908;28;20190;-73
2023/07/09 07:06:58;;;;;;;18.40;7.10;;;;;;;27.69;41.42;96725.03;5020964;28;20433;-73
2023/07/09 07:09:24;;;;;;;22.10;7.07;;;;;;;27.85;41.26;96722.38;5023710;28;20198;-76
2023/07/09 07:11:50;;;;;;;16.70;7.20;;;;;;;27.94;41.00;96718.66;5025428;28;20852;-74
2023/07/09 07:14:15;;;;;;;15.23;7.17;;;;;;;28.12;40.21;96713.13;5024853;28;20656;-72
2023/07/09 07:16:41;;;;;;;15.17;7.33;;;;;;;28.07;40.36;96724.41;5020415;28;20186;-72
2023/07/09 07:19:06;;;;;;;8.67;5.53;;;;;;;27.72;41.17;96722.84;5019213;28;20270;-75
2023/07/09 07:21:32;;;;;;;24.60;8.20;;;;;;;28.03;40.54;96720.34;5021826;28;20210;-70
2023/07/09 07:23:57;;;;;;;6.43;5.17;;;;;;;27.97;40.53;96721.03;5024406;28;20187;-72
2023/07/09 07:26:23;;;;;;;12.93;6.93;;;;;;;28.05;40.17;96718.34;5023173;28;20179;-74
2023/07/09 07:28:50;;;;;;;23.77;7.70;;;;;;;27.89;40.10;96720.19;5024059;28;20199;-72
2023/07/09 07:31:16;;;;;;;9.23;7.27;;;;;;;27.50;40.51;96712.69;5023783;28;20357;-72
2023/07/09 07:33:41;;;;;;;9.37;5.83;;;;;;;27.43;40.74;96717.91;5024662;28;20457;-72
2023/07/09 07:36:08;;;;;;;21.83;7.93;;;;;;;27.82;40.01;96715.41;5026269;28;20723;-72
2023/07/09 07:38:33;;;;;;;21.40;6.67;;;;;;;28.03;38.97;96714.13;5027739;28;20209;-72
2023/07/09 07:41:00;;;;;;;13.33;6.83;;;;;;;28.49;38.28;96712.59;5026918;28;20824;-71
2023/07/09 07:43:25;;;;;;;14.47;7.07;;;;;;;28.81;37.82;96709.97;5027085;28;20181;-73
2023/07/09 07:45:51;;;;;;;10.20;5.23;;;;;;;29.05;37.22;96711.75;5026853;28;20413;-75
2023/07/09 07:48:16;;;;;;;26.60;6.57;;;;;;;29.09;37.34;96699.59;5023433;28;20228;-70
2023/07/09 07:50:41;;;;;;;21.80;6.87;;;;;;;29.25;36.82;96707.63;5025534;28;20574;-71
2023/07/09 07:53:08;;;;;;;18.70;6.20;;;;;;;29.43;36.42;96703.81;5026602;28;20260;-70
2023/07/09 07:55:35;;;;;;;17.23;6.37;;;;;;;29.56;36.62;96704.06;5026619;28;20170;-71
2023/07/09 07:58:02;;;;;;;13.90;6.33;;;;;;;29.73;36.18;96702.97;5014528;28;20418;-71
2023/07/09 08:00:28;;;;;;;21.87;5.97;;;;;;;29.88;35.40;96700.34;5026828;28;20417;-70
2023/07/09 08:02:53;;;;;;;13.27;6.03;;;;;;;30.01;35.61;96693.47;5027374;28;20421;-69
2023/07/09 08:05:19;;;;;;;21.13;6.77;;;;;;;30.13;35.33;96698.25;5026297;28;20177;-70
2023/07/09 08:07:45;;;;;;;10.80;5.97;;;;;;;29.95;35.59;96689.59;5027634;28;20217;-71
2023/07/09 08:10:11;;;;;;;15.80;6.13;;;;;;;29.66;36.43;96699.25;5027844;28;20210;-71
2023/07/09 08:12:37;;;;;;;7.70;5.00;;;;;;;29.86;35.92;96690.69;5033111;28;20194;-71
2023/07/09 08:15:04;;;;;;;8.87;5.10;;;;;;;29.51;37.45;96691.09;5034665;28;20552;-71
2023/07/09 08:17:29;;;;;;;16.37;5.67;;;;;;;29.55;36.79;96680.72;5033175;28;20444;-71
2023/07/09 08:19:55;;;;;;;17.27;6.10;;;;;;;29.90;35.66;96697.44;5026739;28;20411;-71
2023/07/09 08:22:21;;;;;;;9.70;5.30;;;;;;;29.71;36.32;96693.34;5026607;28;20198;-71
2023/07/09 08:24:48;;;;;;;15.00;6.50;;;;;;;29.82;35.86;96694.81;5026973;28;20175;-70
2023/07/09 08:27:14;;;;;;;15.20;4.90;;;;;;;30.14;34.71;96691.81;5026930;28;20425;-70
2023/07/09 08:29:41;;;;;;;31.27;7.10;;;;;;;30.57;33.71;96692.09;5026656;28;20480;-70
2023/07/09 08:32:07;;;;;;;13.43;5.20;;;;;;;30.04;35.77;96696.63;5026452;28;20202;-71
2023/07/09 08:34:33;;;;;;;13.27;5.60;;;;;;;29.89;36.94;96701.16;5026694;28;20418;-71
2023/07/09 08:36:58;;;;;;;6.93;4.43;;;;;;;29.63;35.97;96691.50;5027319;28;20171;-71
2023/07/09 08:39:24;;;;;;;7.57;4.93;;;;;;;29.13;36.99;96696.38;5027358;28;20600;-71
2023/07/09 08:42:07;;;;;;;7.20;5.20;;;;;;;29.15;37.00;96687.22;5026841;28;20214;-71
2023/07/09 08:44:42;;;;;;;12.93;5.67;;;;;;;29.27;36.02;96696.63;5026340;28;20181;-72
2023/07/09 08:47:26;;;;;;;14.63;5.43;;;;;;;29.84;35.90;96690.06;5036480;28;20404;-71
2023/07/09 08:49:59;;;;;;;23.40;8.20;;;;;;;30.44;34.31;96691.06;5047785;28;20944;-72
2023/07/09 08:52:27;;;;;;;20.37;6.00;;;;;;;30.39;33.37;96683.50;5047958;28;20421;-71
2023/07/09 08:54:56;;;;;;;18.83;6.07;;;;;;;30.60;34.05;96688.19;5048166;28;20412;-71
2023/07/09 08:57:25;;;;;;;7.97;4.80;;;;;;;30.22;35.11;96699.03;5049144;28;20401;-72
2023/07/09 09:00:02;;;;;;;13.10;5.83;;;;;;;30.22;35.20;96695.47;5048450;28;20397;-71
2023/07/09 09:02:35;;;;;;;17.10;6.10;;;;;;;30.22;34.51;96690.06;5049230;28;20428;-71
2023/07/09 09:05:03;;;;;;;30.63;8.43;;;;;;;30.75;34.47;96694.44;5048793;28;20422;-71
2023/07/09 09:07:41;;;;;;;31.67;7.90;;;;;;;31.14;33.58;96690.63;5049350;28;20499;-71
2023/07/09 09:10:13;;;;;;;10.43;5.53;;;;;;;30.56;34.41;96695.00;5048051;28;20471;-71
2023/07/09 09:12:49;;;;;;;11.47;5.83;;;;;;;30.39;34.23;96694.31;5050801;28;20464;-72
2023/07/09 09:15:18;;;;;;;10.87;6.37;;;;;;;30.68;34.83;96685.38;5047807;28;20420;-72
2023/07/09 09:17:44;;;;;;;11.10;5.20;;;;;;;31.08;33.20;96679.69;5047391;28;20928;-71
2023/07/09 09:20:22;;;;;;;10.00;4.77;;;;;;;31.51;32.02;96687.94;5046867;28;20417;-71
2023/07/09 09:23:06;;;;;;;12.60;5.40;;;;;;;31.79;31.03;96680.72;5047242;28;20174;-72
2023/07/09 09:25:34;;;;;;;6.10;4.90;;;;;;;31.97;31.43;96685.72;5046529;28;20752;-70
2023/07/09 09:28:01;;;;;;;10.43;6.00;;;;;;;31.49;32.09;96692.69;5046319;28;20417;-71
2023/07/09 09:30:27;;;;;;;7.97;5.37;;;;;;;31.62;31.41;96682.00;5046577;28;20460;-71
2023/07/09 09:32:58;;;;;;;10.30;5.07;;;;;;;32.07;30.70;96677.25;5046722;28;20411;-71
2023/07/09 09:36:00;;;;;;;20.83;6.10;;;;;;;32.17;30.38;96669.59;5046658;28;20780;-70
2023/07/09 09:38:26;;;;;;;26.00;7.07;;;;;;;32.36;30.10;96683.53;5046629;28;20404;-71
2023/07/09 09:41:00;;;;;;;22.30;6.60;;;;;;;32.49;29.74;96683.63;5046691;28;20440;-71
2023/07/09 09:43:32;;;;;;;40.77;8.70;;;;;;;32.61;28.70;96682.06;5047409;28;20174;-71
2023/07/09 09:46:01;;;;;;;15.90;5.93;;;;;;;32.73;28.22;96673.38;5046798;28;20257;-70
2023/07/09 09:48:29;;;;;;;35.57;8.77;;;;;;;32.93;28.35;96679.75;5031709;28;20706;-71
2023/07/09 09:51:00;;;;;;;19.43;6.70;;;;;;;32.79;28.70;96677.97;5026815;28;20209;-70
2023/07/09 09:53:27;;;;;;;11.03;5.10;;;;;;;32.68;29.21;96671.25;5026237;28;20178;-70
2023/07/09 09:55:54;;;;;;;10.90;5.47;;;;;;;32.78;28.49;96684.47;5025341;28;20190;-72
2023/07/09 09:58:24;;;;;;;15.27;6.00;;;;;;;32.89;28.43;96681.19;5025864;28;20167;-71
2023/07/09 10:00:52;;;;;;;8.10;5.20;;;;;;;32.84;27.47;96686.41;5025932;28;20183;-71
2023/07/09 10:03:18;;;;;;;26.07;6.40;;;;;;;32.82;27.87;96673.00;5026191;28;20727;-70
2023/07/09 10:05:51;;;;;;;9.63;6.50;;;;;;;32.81;27.82;96679.47;5026158;28;20175;-71
2023/07/09 10:08:34;;;;;;;15.83;5.23;;;;;;;32.22;27.26;96682.56;5026619;28;20170;-71
2023/07/09 10:11:14;;;;;;;10.40;5.33;;;;;;;31.85;27.58;96685.38;5025949;28;20264;-71
2023/07/09 10:13:44;;;;;;;14.70;5.50;;;;;;;31.59;26.59;96683.22;5008605;28;20173;-70
2023/07/09 10:16:09;;;;;;;14.60;5.60;;;;;;;31.63;27.02;96692.69;5026442;28;20505;-71
2023/07/09 10:18:47;;;;;;;10.50;4.80;;;;;;;31.54;25.56;96687.56;5026368;28;20500;-73
2023/07/09 10:21:12;;;;;;;15.40;6.00;;;;;;;31.84;25.90;96686.41;5026725;28;20183;-71
2023/07/09 10:24:05;;;;;;;14.53;4.40;;;;;;;32.08;25.53;96678.94;5026060;28;21039;-70
2023/07/09 10:26:41;;;;;;;12.07;4.00;;;;;;;32.26;25.54;96687.41;5022926;28;20198;-70
2023/07/09 10:29:09;;;;;;;17.03;5.20;;;;;;;32.30;24.86;96677.00;5027364;28;20398;-71
2023/07/09 10:32:03;;;;;;;9.37;4.17;;;;;;;31.87;25.05;96679.75;5028782;28;20272;-70
2023/07/09 10:34:41;;;;;;;4.43;3.60;;;;;;;31.31;24.23;96674.97;5029199;28;20401;-70
2023/07/09 10:37:37;;;;;;;4.90;4.07;;;;;;;31.07;25.28;96669.88;5029166;28;20413;-70
2023/07/09 10:40:08;;;;;;;5.10;3.90;;;;;;;31.23;25.25;96662.38;5028243;28;20178;-71
2023/07/09 10:42:38;;;;;;;12.13;4.77;;;;;;;31.32;25.03;96660.34;5028901;28;20457;-71
2023/07/09 10:45:10;;;;;;;10.07;4.27;;;;;;;31.62;24.51;96653.00;5029342;28;20398;-71
2023/07/09 10:47:43;;;;;;;7.97;4.20;;;;;;;31.91;24.19;96653.06;5036696;28;20421;-71
2023/07/09 10:50:40;;;;;;;5.23;3.53;;;;;;;31.50;22.65;96657.25;5048974;28;20225;-71
2023/07/09 10:53:15;;;;;;;6.03;3.67;;;;;;;31.34;23.05;96654.75;5046198;28;20413;-70
2023/07/09 10:56:00;;;;;;;5.30;4.00;;;;;;;31.40;23.05;96649.44;5048911;28;20413;-70
2023/07/09 10:58:36;;;;;;;5.87;3.97;;;;;;;31.02;24.13;96646.88;5048881;28;20432;-71
2023/07/09 11:01:03;;;;;;;12.50;4.53;;;;;;;31.07;24.66;96654.44;5048315;28;20435;-70
2023/07/09 11:03:40;;;;;;;10.07;4.03;;;;;;;31.06;24.89;96650.03;5048907;28;20420;-72
2023/07/09 11:06:14;;;;;;;11.30;4.23;;;;;;;31.11;24.89;96647.63;5048695;28;20400;-69
2023/07/09 11:08:41;;;;;;;10.53;5.17;;;;;;;30.97;24.92;96643.03;5048676;28;20840;-69
2023/07/09 11:11:13;;;;;;;6.63;4.20;;;;;;;31.27;24.42;96643.81;5048713;28;20792;-69
2023/07/09 11:13:47;;;;;;;5.87;3.87;;;;;;;31.22;25.19;96646.28;5049291;28;20425;-71
2023/07/09 11:16:20;;;;;;;5.33;4.00;;;;;;;31.15;25.26;96640.78;5049578;28;20500;-70
2023/07/09 11:18:56;;;;;;;6.83;3.90;;;;;;;30.94;24.78;96641.56;5048040;28;20393;-70
2023/07/09 11:21:22;;;;;;;7.10;3.97;;;;;;;31.15;23.85;96631.81;5048717;28;20846;-71
2023/07/09 11:23:51;;;;;;;6.23;4.10;;;;;;;31.29;24.49;96632.81;5048253;28;20412;-72
2023/07/09 11:26:25;;;;;;;6.73;4.13;;;;;;;31.62;23.75;96631.28;5047936;28;20550;-71
2023/07/09 11:28:54;;;;;;;4.30;3.70;;;;;;;31.77;24.58;96633.97;5047499;28;20456;-71
2023/07/09 11:31:23;;;;;;;8.73;4.53;;;;;;;31.66;24.10;96631.75;5047952;28;20423;-72